createdAt,value
2019-04-16T00:02:19.468Z,8.70
2019-04-16T00:05:08.019Z,8.80
2019-04-16T00:07:46.035Z,8.73
2019-04-16T00:10:37.865Z,9.10
2019-04-16T00:13:13.996Z,8.73
2019-04-16T00:15:50.855Z,8.77
2019-04-16T00:18:20.466Z,9.80
2019-04-16T00:21:14.462Z,9.37
2019-04-16T00:24:02.982Z,9.07
2019-04-16T00:26:32.483Z,8.73
2019-04-16T00:29:02.903Z,9.63
2019-04-16T00:31:34.337Z,8.97
2019-04-16T00:34:04.248Z,8.53
2019-04-16T00:36:33.805Z,9.70
2019-04-16T00:39:04.131Z,8.50
2019-04-16T00:41:34.104Z,8.70
2019-04-16T00:44:03.377Z,8.87
2019-04-16T00:46:32.987Z,8.50
2019-04-16T00:49:02.527Z,9.47
2019-04-16T00:51:31.815Z,9.00
2019-04-16T00:54:01.176Z,8.60
2019-04-16T00:56:33.417Z,9.33
2019-04-16T00:59:03.427Z,9.43
2019-04-16T01:01:33.239Z,9.63
2019-04-16T01:04:03.166Z,9.70
2019-04-16T01:06:33.032Z,9.63
2019-04-16T01:09:02.322Z,8.73
2019-04-16T01:11:31.839Z,8.80
2019-04-16T01:14:01.210Z,9.53
2019-04-16T01:16:32.997Z,8.70
2019-04-16T01:19:01.753Z,9.27
2019-04-16T01:21:31.012Z,8.73
2019-04-16T01:24:00.399Z,10.03
2019-04-16T01:26:29.668Z,9.63
2019-04-16T01:29:04.587Z,8.67
2019-04-16T01:31:46.878Z,9.37
2019-04-16T01:34:24.710Z,9.63
2019-04-16T01:37:25.502Z,8.97
2019-04-16T01:39:54.195Z,8.67
2019-04-16T01:42:24.262Z,9.27
2019-04-16T01:44:53.575Z,9.83
2019-04-16T01:47:22.928Z,9.43
2019-04-16T01:49:52.211Z,10.17
2019-04-16T01:52:21.503Z,8.87
2019-04-16T01:54:54.983Z,9.40
2019-04-16T01:57:24.545Z,9.13
2019-04-16T01:59:54.228Z,9.57
2019-04-16T02:02:23.567Z,9.97
2019-04-16T02:04:52.882Z,9.00
2019-04-16T02:07:22.187Z,9.57
2019-04-16T02:09:51.736Z,10.60
2019-04-16T02:12:21.389Z,9.70
2019-04-16T02:14:51.197Z,9.23
2019-04-16T02:17:26.686Z,9.27
2019-04-16T02:19:52.683Z,9.40
2019-04-16T02:22:22.279Z,9.40
2019-04-16T02:24:51.803Z,9.20
2019-04-16T02:27:23.517Z,9.77
2019-04-16T02:29:53.702Z,9.97
2019-04-16T02:32:23.632Z,9.80
2019-04-16T02:34:53.316Z,9.30
2019-04-16T02:37:23.292Z,9.77
2019-04-16T02:39:52.789Z,10.23
2019-04-16T02:42:22.195Z,10.43
2019-04-16T02:44:51.749Z,9.60
2019-04-16T02:47:20.986Z,10.10
2019-04-16T02:49:56.388Z,9.47
2019-04-16T02:52:50.297Z,9.43
2019-04-16T02:55:33.493Z,9.20
2019-04-16T02:58:09.620Z,10.07
2019-04-16T03:00:56.573Z,10.77
2019-04-16T03:03:37.851Z,10.40
2019-04-16T03:06:07.199Z,9.20
2019-04-16T03:08:36.964Z,10.30
2019-04-16T03:11:06.847Z,10.63
2019-04-16T03:13:36.110Z,9.83
2019-04-16T03:16:24.341Z,9.30
2019-04-16T03:18:58.250Z,9.80
2019-04-16T03:21:28.209Z,9.60
2019-04-16T03:23:57.925Z,10.77
2019-04-16T03:26:27.211Z,9.97
2019-04-16T03:28:59.217Z,9.47
2019-04-16T03:31:27.785Z,11.57
2019-04-16T03:33:57.154Z,9.63
2019-04-16T03:36:29.341Z,10.40
2019-04-16T03:38:57.835Z,8.90
2019-04-16T03:41:27.377Z,10.17
2019-04-16T03:43:56.883Z,9.40
2019-04-16T03:46:26.143Z,10.80
2019-04-16T03:48:56.468Z,10.47
2019-04-16T03:51:26.109Z,10.30
2019-04-16T03:53:55.367Z,10.07
2019-04-16T03:56:27.523Z,9.60
2019-04-16T03:58:55.704Z,9.83
2019-04-16T04:01:24.971Z,9.77
2019-04-16T04:03:57.491Z,10.40
2019-04-16T04:06:25.512Z,10.27
2019-04-16T04:08:54.787Z,10.67
2019-04-16T04:11:24.339Z,10.80
2019-04-16T04:13:53.618Z,10.23
2019-04-16T04:16:22.881Z,10.67
2019-04-16T04:18:52.227Z,9.67
2019-04-16T04:21:22.646Z,10.53
2019-04-16T04:23:52.108Z,10.93
2019-04-16T04:26:21.693Z,10.47
2019-04-16T04:28:51.531Z,10.27
2019-04-16T04:31:21.912Z,10.37
2019-04-16T04:33:51.434Z,10.63
2019-04-16T04:36:22.951Z,10.63
2019-04-16T04:38:51.725Z,10.93
2019-04-16T04:41:23.034Z,10.83
2019-04-16T04:43:52.290Z,10.33
2019-04-16T04:46:21.653Z,11.70
2019-04-16T04:48:55.073Z,10.93
2019-04-16T04:51:22.556Z,10.40
2019-04-16T04:53:52.089Z,10.80
2019-04-16T04:56:21.374Z,11.20
2019-04-16T04:58:50.659Z,11.30
2019-04-16T05:01:20.304Z,10.93
2019-04-16T05:04:11.316Z,11.43
2019-04-16T05:06:41.452Z,11.47
2019-04-16T05:09:11.485Z,12.37
2019-04-16T05:11:41.376Z,12.27
2019-04-16T05:14:10.881Z,13.00
2019-04-16T05:16:40.511Z,11.67
2019-04-16T05:19:13.827Z,13.70
2019-04-16T05:21:41.265Z,12.00
2019-04-16T05:24:11.124Z,11.83
2019-04-16T05:26:40.463Z,11.57
2019-04-16T05:29:16.991Z,11.43
2019-04-16T05:31:44.419Z,10.73
2019-04-16T05:34:17.419Z,11.47
2019-04-16T05:36:47.853Z,10.63
2019-04-16T05:39:16.328Z,10.73
2019-04-16T05:41:45.758Z,12.17
2019-04-16T05:44:15.061Z,12.00
2019-04-16T05:46:48.132Z,11.17
2019-04-16T05:49:18.336Z,11.57
2019-04-16T05:51:47.923Z,11.57
2019-04-16T05:54:36.555Z,11.90
2019-04-16T05:57:06.178Z,11.30
2019-04-16T05:59:35.743Z,10.77
2019-04-16T06:02:10.301Z,10.83
2019-04-16T06:04:39.862Z,11.03
2019-04-16T06:07:09.164Z,11.37
2019-04-16T06:09:41.436Z,10.97
2019-04-16T06:12:09.991Z,11.50
2019-04-16T06:14:54.029Z,10.87
2019-04-16T06:17:51.957Z,11.27
2019-04-16T06:20:37.189Z,11.13
2019-04-16T06:23:31.955Z,10.23
2019-04-16T06:26:04.503Z,11.23
2019-04-16T06:28:55.329Z,11.13
2019-04-16T06:31:54.375Z,11.10
2019-04-16T06:34:41.515Z,11.53
2019-04-16T06:37:21.581Z,13.13
2019-04-16T06:40:09.947Z,11.50
2019-04-16T06:42:58.444Z,11.00
2019-04-16T06:45:36.514Z,10.47
2019-04-16T06:48:06.543Z,12.63
2019-04-16T06:50:53.633Z,10.63
2019-04-16T06:53:32.169Z,11.43
2019-04-16T06:56:20.592Z,10.33
2019-04-16T06:58:57.521Z,10.30
2019-04-16T07:01:46.629Z,9.80
2019-04-16T07:04:34.870Z,10.10
2019-04-16T07:07:22.562Z,10.03
2019-04-16T07:09:57.647Z,10.23
2019-04-16T07:12:30.426Z,10.37
2019-04-16T07:14:59.789Z,10.33
2019-04-16T07:17:33.730Z,10.37
2019-04-16T07:20:04.349Z,10.10
2019-04-16T07:22:32.167Z,10.13
2019-04-16T07:25:04.413Z,9.93
2019-04-16T07:27:57.692Z,10.53
2019-04-16T07:30:50.307Z,10.37
2019-04-16T07:33:37.103Z,10.70
2019-04-16T07:36:27.177Z,10.43
2019-04-16T07:39:28.272Z,10.33
2019-04-16T07:42:08.375Z,10.27
2019-04-16T07:44:55.528Z,10.87
2019-04-16T07:47:56.601Z,12.20
2019-04-16T07:50:57.715Z,11.40
2019-04-16T07:53:47.427Z,11.10
2019-04-16T07:56:26.327Z,12.30
2019-04-16T07:59:00.200Z,19.20
2019-04-16T08:01:26.868Z,11.40
2019-04-16T08:03:56.792Z,11.03
2019-04-16T08:06:27.227Z,11.87
2019-04-16T08:08:57.110Z,11.97
2019-04-16T08:11:27.518Z,11.90
2019-04-16T08:13:57.137Z,11.77
2019-04-16T08:16:26.678Z,11.20
2019-04-16T08:18:55.927Z,11.03
2019-04-16T08:21:25.202Z,11.50
2019-04-16T08:24:00.953Z,12.03
2019-04-16T08:26:30.323Z,10.87
2019-04-16T08:29:00.011Z,12.10
2019-04-16T08:31:30.443Z,12.50
2019-04-16T08:33:59.727Z,11.90
2019-04-16T08:36:29.352Z,11.47
2019-04-16T08:38:58.667Z,10.97
2019-04-16T08:41:27.951Z,12.07
2019-04-16T08:43:59.692Z,11.53
2019-04-16T08:46:28.522Z,12.37
2019-04-16T08:48:58.223Z,12.23
2019-04-16T08:51:30.997Z,10.90
2019-04-16T08:53:58.768Z,11.97
2019-04-16T08:56:28.060Z,12.10
2019-04-16T08:59:00.927Z,12.67
2019-04-16T09:01:30.701Z,11.50
2019-04-16T09:04:02.642Z,12.03
2019-04-16T09:06:31.285Z,11.83
2019-04-16T09:09:14.182Z,11.73
2019-04-16T09:11:42.891Z,12.50
2019-04-16T09:14:12.152Z,12.60
2019-04-16T09:16:58.666Z,11.97
2019-04-16T09:19:27.929Z,12.13
2019-04-16T09:21:57.191Z,12.20
2019-04-16T09:24:30.429Z,12.03
2019-04-16T09:27:18.648Z,11.80
2019-04-16T09:30:25.444Z,11.90
2019-04-16T09:33:00.735Z,12.57
2019-04-16T09:35:33.883Z,11.27
2019-04-16T09:38:22.377Z,12.00
2019-04-16T09:41:06.453Z,11.63
2019-04-16T09:43:40.289Z,11.60
2019-04-16T09:46:11.136Z,11.47
2019-04-16T09:48:40.913Z,11.97
2019-04-16T09:51:10.195Z,11.80
2019-04-16T09:53:40.284Z,11.93
2019-04-16T09:56:30.057Z,11.17
2019-04-16T09:59:03.722Z,11.67
2019-04-16T10:01:42.304Z,11.90
2019-04-16T10:04:18.467Z,12.77
2019-04-16T10:06:47.865Z,12.07
2019-04-16T10:09:21.746Z,10.90
2019-04-16T10:11:48.553Z,11.70
2019-04-16T10:14:17.874Z,11.27
2019-04-16T10:16:47.500Z,11.60
2019-04-16T10:19:17.010Z,13.07
2019-04-16T10:21:46.331Z,10.37
2019-04-16T10:24:37.796Z,11.10
2019-04-16T10:27:08.642Z,10.40
2019-04-16T10:29:38.021Z,10.80
2019-04-16T10:32:07.731Z,10.27
2019-04-16T10:34:37.323Z,10.80
2019-04-16T10:37:07.126Z,10.30
2019-04-16T10:40:05.062Z,10.30
2019-04-16T10:42:59.696Z,10.10
2019-04-16T10:45:47.969Z,9.83
2019-04-16T10:48:32.003Z,9.53
2019-04-16T10:51:29.253Z,8.97
2019-04-16T10:54:20.683Z,9.97
2019-04-16T10:57:10.268Z,10.37
2019-04-16T10:59:56.600Z,9.37
2019-04-16T11:02:40.388Z,9.53
2019-04-16T11:05:31.986Z,8.93
2019-04-16T11:08:04.282Z,9.10
2019-04-16T11:10:34.186Z,8.77
2019-04-16T11:13:05.195Z,9.67
2019-04-16T11:15:34.832Z,10.40
2019-04-16T11:18:04.188Z,10.87
2019-04-16T11:20:33.481Z,10.40
2019-04-16T11:23:03.287Z,10.37
2019-04-16T11:25:33.984Z,10.30
2019-04-16T11:28:03.734Z,10.17
2019-04-16T11:30:48.710Z,10.00
2019-04-16T11:33:17.611Z,10.80
2019-04-16T11:36:18.600Z,10.47
2019-04-16T11:38:37.443Z,11.73
2019-04-16T11:41:06.787Z,10.80
2019-04-16T11:43:37.245Z,12.07
2019-04-16T11:46:07.138Z,11.83
2019-04-16T11:48:37.583Z,11.43
2019-04-16T11:51:07.662Z,12.30
2019-04-16T11:53:37.110Z,12.03
2019-04-16T11:56:06.843Z,13.23
2019-04-16T11:58:44.044Z,13.20
2019-04-16T12:01:31.675Z,14.07
2019-04-16T12:04:19.942Z,13.50
2019-04-16T12:07:06.079Z,12.67
2019-04-16T12:09:57.708Z,13.63
2019-04-16T12:12:37.091Z,13.57
2019-04-16T12:15:16.992Z,14.47
2019-04-16T12:18:05.350Z,15.47
2019-04-16T12:20:52.089Z,14.80
2019-04-16T12:23:58.563Z,13.43
2019-04-16T12:26:56.230Z,14.67
2019-04-16T12:29:47.689Z,14.50
2019-04-16T12:32:31.900Z,15.37
2019-04-16T12:35:16.829Z,14.40
2019-04-16T12:38:03.989Z,14.63
2019-04-16T12:41:01.538Z,15.17
2019-04-16T12:43:44.308Z,15.50
2019-04-16T12:46:24.909Z,15.53
2019-04-16T12:49:16.663Z,16.47
2019-04-16T12:52:03.136Z,15.20
2019-04-16T12:54:58.248Z,15.57
2019-04-16T12:57:38.566Z,14.47
2019-04-16T13:00:26.478Z,14.43
2019-04-16T13:03:20.992Z,16.03
2019-04-16T13:06:09.546Z,16.30
2019-04-16T13:09:03.579Z,16.60
2019-04-16T13:11:45.615Z,13.13
2019-04-16T13:14:26.969Z,13.90
2019-04-16T13:17:08.955Z,12.67
2019-04-16T13:19:50.907Z,11.00
2019-04-16T13:22:21.977Z,9.83
2019-04-16T13:24:58.191Z,10.43
2019-04-16T13:27:33.041Z,9.33
2019-04-16T13:30:03.193Z,10.40
2019-04-16T13:32:32.921Z,9.97
2019-04-16T13:35:02.263Z,10.10
2019-04-16T13:37:36.960Z,9.57
2019-04-16T13:40:08.884Z,11.23
2019-04-16T13:42:38.235Z,10.40
2019-04-16T13:45:31.526Z,10.40
2019-04-16T13:48:14.481Z,9.63
2019-04-16T13:50:56.425Z,10.60
2019-04-16T13:53:50.576Z,10.40
2019-04-16T13:56:23.321Z,9.20
2019-04-16T13:59:00.725Z,10.03
2019-04-16T14:01:33.676Z,8.40
2019-04-16T14:04:02.971Z,8.73
2019-04-16T14:06:32.323Z,9.60
2019-04-16T14:09:01.892Z,8.17
2019-04-16T14:11:31.783Z,9.00
2019-04-16T14:14:01.034Z,9.53
2019-04-16T14:16:30.302Z,7.63
2019-04-16T14:19:02.561Z,8.73
2019-04-16T14:21:30.600Z,8.63
2019-04-16T14:23:59.872Z,8.57
2019-04-16T14:26:29.158Z,7.93
2019-04-16T14:28:58.427Z,8.50
2019-04-16T14:31:28.459Z,8.03
2019-04-16T14:34:03.062Z,7.87
2019-04-16T14:36:32.767Z,8.20
2019-04-16T14:39:07.823Z,7.87
2019-04-16T14:41:36.723Z,8.20
2019-04-16T14:44:10.402Z,8.63
2019-04-16T14:46:39.647Z,8.27
2019-04-16T14:49:08.941Z,8.40
2019-04-16T14:51:38.536Z,7.80
2019-04-16T14:54:16.638Z,9.13
2019-04-16T14:56:48.620Z,8.87
2019-04-16T14:59:41.264Z,8.07
2019-04-16T15:02:41.861Z,8.17
2019-04-16T15:05:16.976Z,7.90
2019-04-16T15:07:54.478Z,7.27
2019-04-16T15:10:38.915Z,7.20
2019-04-16T15:13:25.496Z,6.53
2019-04-16T15:16:13.073Z,7.37
2019-04-16T15:18:56.667Z,7.00
2019-04-16T15:21:53.768Z,7.93
2019-04-16T15:24:40.864Z,7.33
2019-04-16T15:27:36.567Z,7.17
2019-04-16T15:30:29.297Z,8.13
2019-04-16T15:33:17.903Z,7.07
2019-04-16T15:35:52.143Z,6.97
2019-04-16T15:38:49.502Z,7.03
2019-04-16T15:41:36.688Z,7.33
2019-04-16T15:44:32.146Z,8.27
2019-04-16T15:47:23.508Z,7.97
2019-04-16T15:50:26.911Z,8.07
2019-04-16T15:52:58.881Z,7.33
2019-04-16T15:55:47.083Z,8.20
2019-04-16T15:58:32.348Z,10.47
2019-04-16T16:01:17.274Z,7.57
2019-04-16T16:04:08.761Z,7.73
2019-04-16T16:06:56.958Z,8.23
2019-04-16T16:09:58.908Z,7.63
2019-04-16T16:12:30.459Z,7.03
2019-04-16T16:14:59.802Z,6.20
2019-04-16T16:17:29.350Z,5.83
2019-04-16T16:19:58.961Z,5.30
2019-04-16T16:22:28.260Z,5.50
2019-04-16T16:24:57.600Z,5.90
2019-04-16T16:27:27.571Z,6.13
2019-04-16T16:29:57.314Z,6.17
2019-04-16T16:32:26.878Z,5.93
2019-04-16T16:34:57.436Z,5.20
2019-04-16T16:37:26.764Z,5.97
2019-04-16T16:39:56.720Z,4.10
2019-04-16T16:42:26.776Z,3.70
2019-04-16T16:44:58.265Z,3.50
2019-04-16T16:47:34.055Z,3.33
2019-04-16T16:50:07.327Z,3.30
2019-04-16T16:52:54.690Z,2.67
2019-04-16T16:55:42.896Z,2.60
2019-04-16T16:58:30.208Z,2.57
2019-04-16T17:01:16.597Z,2.33
2019-04-16T17:04:04.568Z,1.93
2019-04-16T17:06:33.908Z,1.93
2019-04-16T17:09:03.242Z,1.70
2019-04-16T17:11:32.543Z,2.03
2019-04-16T17:14:03.156Z,1.50
2019-04-16T17:16:32.961Z,1.23
2019-04-16T17:19:02.566Z,1.60
2019-04-16T17:21:31.923Z,1.37
2019-04-16T17:24:01.289Z,1.20
2019-04-16T17:26:30.917Z,1.30
2019-04-16T17:29:00.167Z,2.13
2019-04-16T17:31:29.475Z,1.30
2019-04-16T17:33:59.051Z,1.17
2019-04-16T17:36:28.563Z,1.30
2019-04-16T17:38:57.892Z,1.00
2019-04-16T17:41:32.599Z,1.10
2019-04-16T17:44:09.104Z,1.00
2019-04-16T17:46:56.262Z,1.20
2019-04-16T17:49:47.602Z,1.20
2019-04-16T17:52:33.491Z,1.20
2019-04-16T17:55:07.395Z,2.13
2019-04-16T17:57:42.823Z,1.87
2019-04-16T18:00:30.456Z,1.43
2019-04-16T18:03:18.834Z,1.90
2019-04-16T18:05:53.012Z,2.07
2019-04-16T18:08:35.030Z,2.30
2019-04-16T18:11:18.044Z,15.87
2019-04-16T18:13:51.995Z,1.60
2019-04-16T18:16:33.757Z,1.77
2019-04-16T18:19:24.771Z,1.93
2019-04-16T18:22:17.581Z,1.37
2019-04-16T18:25:21.315Z,2.00
2019-04-16T18:27:53.771Z,1.60
2019-04-16T18:30:44.947Z,1.97
2019-04-16T18:33:21.796Z,2.27
2019-04-16T18:36:04.071Z,1.80
2019-04-16T18:38:44.123Z,2.60
2019-04-16T18:41:38.249Z,2.40
2019-04-16T18:44:41.663Z,2.17
2019-04-16T18:47:32.824Z,2.70
2019-04-16T18:50:04.483Z,2.30
2019-04-16T18:52:36.629Z,2.13
2019-04-16T18:55:05.190Z,1.93
2019-04-16T18:57:38.384Z,2.30
2019-04-16T19:00:28.711Z,1.77
2019-04-16T19:02:58.527Z,2.03
2019-04-16T19:05:28.219Z,1.80
2019-04-16T19:08:00.193Z,2.10
2019-04-16T19:10:28.731Z,2.20
2019-04-16T19:12:58.402Z,2.20
2019-04-16T19:15:27.760Z,2.07
2019-04-16T19:17:57.026Z,2.60
2019-04-16T19:20:26.586Z,2.80
2019-04-16T19:22:56.314Z,2.80
2019-04-16T19:28:04.793Z,2.13
2019-04-16T19:30:32.836Z,1.90
2019-04-16T19:33:02.356Z,2.20
2019-04-16T19:35:31.647Z,2.10
2019-04-16T19:38:02.359Z,2.03
2019-04-16T19:40:32.252Z,2.20
2019-04-16T19:43:03.204Z,1.67
2019-04-16T19:45:33.239Z,1.70
2019-04-16T19:48:02.612Z,2.00
2019-04-16T19:50:36.198Z,2.33
2019-04-16T19:53:02.883Z,1.87
2019-04-16T19:55:32.169Z,2.30
2019-04-16T19:58:01.749Z,2.20
2019-04-16T20:00:31.389Z,2.33
2019-04-16T20:03:00.996Z,2.40
2019-04-16T20:05:30.608Z,2.40
2019-04-16T20:08:00.283Z,3.03
2019-04-16T20:10:29.794Z,2.63
2019-04-16T20:12:59.741Z,2.07
2019-04-16T20:15:29.862Z,2.33
2019-04-16T20:17:59.848Z,2.40
2019-04-16T20:20:29.124Z,2.90
2019-04-16T20:22:58.443Z,2.93
2019-04-16T20:25:27.713Z,2.80
2019-04-16T20:27:57.067Z,2.73
2019-04-16T20:30:26.848Z,3.73
2019-04-16T20:32:56.143Z,2.80
2019-04-16T20:35:26.786Z,3.70
2019-04-16T20:37:56.076Z,3.27
2019-04-16T20:40:25.457Z,3.40
2019-04-16T20:42:54.717Z,2.60
2019-04-16T20:45:24.386Z,2.90
2019-04-16T20:47:53.722Z,2.80
2019-04-16T20:50:22.980Z,3.03
2019-04-16T20:52:53.758Z,3.97
2019-04-16T20:55:23.211Z,4.37
2019-04-16T20:57:55.391Z,4.47
2019-04-16T21:00:31.866Z,3.40
2019-04-16T21:03:02.982Z,4.60
2019-04-16T21:05:35.803Z,4.30
2019-04-16T21:08:03.632Z,4.87
2019-04-16T21:10:35.633Z,5.13
2019-04-16T21:13:03.963Z,5.37
2019-04-16T21:15:33.577Z,4.73
2019-04-16T21:18:04.022Z,5.17
2019-04-16T21:20:33.324Z,4.80
2019-04-16T21:23:03.525Z,5.00
2019-04-16T21:25:33.297Z,5.20
2019-04-16T21:28:23.358Z,4.93
2019-04-16T21:30:57.745Z,5.60
2019-04-16T21:33:40.694Z,4.63
2019-04-16T21:36:11.312Z,4.53
2019-04-16T21:38:50.859Z,4.37
2019-04-16T21:41:25.594Z,4.40
2019-04-16T21:43:54.199Z,4.33
2019-04-16T21:46:23.453Z,3.70
2019-04-16T21:48:56.041Z,4.20
2019-04-16T21:51:25.392Z,4.47
2019-04-16T21:53:57.377Z,4.23
2019-04-16T21:56:26.039Z,3.90
2019-04-16T21:58:55.299Z,4.40
2019-04-16T22:01:49.662Z,4.37
2019-04-16T22:04:19.251Z,4.77
2019-04-16T22:06:49.101Z,4.37
2019-04-16T22:09:20.184Z,4.77
2019-04-16T22:11:49.499Z,4.80
2019-04-16T22:14:22.011Z,4.97
2019-04-16T22:16:50.378Z,5.30
2019-04-16T22:19:19.919Z,4.37
2019-04-16T22:21:49.904Z,4.67
2019-04-16T22:24:19.771Z,4.73
2019-04-16T22:26:50.279Z,4.00
2019-04-16T22:29:19.610Z,3.93
2019-04-16T22:31:49.151Z,3.77
2019-04-16T22:34:19.132Z,3.93
2019-04-16T22:36:48.454Z,3.60
2019-04-16T22:39:39.914Z,3.87
2019-04-16T22:42:26.418Z,3.63
2019-04-16T22:45:07.196Z,3.50
2019-04-16T22:47:36.852Z,3.57
2019-04-16T22:50:16.416Z,3.27
2019-04-16T22:52:37.554Z,3.40
2019-04-16T22:55:08.975Z,3.70
2019-04-16T22:57:38.296Z,3.53
2019-04-16T23:00:14.302Z,3.20
2019-04-16T23:02:47.798Z,3.70
2019-04-16T23:05:14.588Z,3.27
2019-04-16T23:07:44.103Z,3.50
2019-04-16T23:10:13.619Z,3.07
2019-04-16T23:12:43.216Z,3.53
2019-04-16T23:15:15.472Z,3.20
2019-04-16T23:17:46.019Z,3.63
2019-04-16T23:20:28.514Z,3.83
2019-04-16T23:22:47.668Z,3.50
2019-04-16T23:25:17.374Z,3.50
2019-04-16T23:27:46.611Z,3.40
2019-04-16T23:30:18.501Z,4.00
2019-04-16T23:32:47.566Z,4.20
2019-04-16T23:35:17.177Z,3.90
2019-04-16T23:37:46.448Z,3.40
2019-04-16T23:40:15.967Z,3.40
2019-04-16T23:42:58.983Z,3.90
2019-04-16T23:45:46.654Z,3.40
2019-04-16T23:48:35.361Z,3.23
2019-04-16T23:51:18.071Z,3.20
2019-04-16T23:53:55.590Z,3.37
2019-04-16T23:56:52.966Z,3.30
2019-04-16T23:59:28.730Z,3.43
